Time;durP1;ratioP1;P1;durP2;ratioP2;P2;SDS_P1;SDS_P2;PMS_P1;PMS_P2;Temp;Humidity;BMP_temperature;BMP_pressure;BME280_temperature;BME280_humidity;BME280_pressure;Samples;Min_cycle;Max_cycle;Signal;HPM_P1;HPM_P2
2020/12/19 00:06:45;;;;;;;0.47;0.37;;;12.80;99.90;;;;;;21105087;28;20558;-76
2020/12/19 00:16:47;;;;;;;0.73;0.30;;;12.50;99.90;;;;;;21104703;28;20219;-75
2020/12/19 00:26:51;;;;;;;0.60;0.60;;;12.60;99.90;;;;;;21107278;28;20615;-75
2020/12/19 00:36:54;;;;;;;0.57;0.50;;;12.50;99.90;;;;;;21121082;28;20226;-74
2020/12/19 00:47:00;;;;;;;0.40;0.40;;;12.80;99.90;;;;;;21119996;28;20191;-75
2020/12/19 00:57:03;;;;;;;1.67;0.47;;;12.80;99.90;;;;;;21120659;28;20889;-76
2020/12/19 01:07:11;;;;;;;1.20;0.80;;;12.70;99.90;;;;;;21119414;28;20203;-77
2020/12/19 01:17:13;;;;;;;1.13;1.03;;;12.70;99.90;;;;;;21119953;28;20891;-76
2020/12/19 01:27:17;;;;;;;0.40;0.30;;;12.50;99.90;;;;;;21097130;28;20199;-76
2020/12/19 01:37:19;;;;;;;1.00;0.97;;;12.40;99.90;;;;;;21117675;28;20223;-76
2020/12/19 01:47:23;;;;;;;1.20;1.03;;;12.30;99.90;;;;;;21115161;28;20278;-75
2020/12/19 01:57:27;;;;;;;0.87;0.80;;;12.20;99.90;;;;;;21103335;28;20268;-76
2020/12/19 02:07:30;;;;;;;0.60;0.47;;;12.30;99.90;;;;;;21114701;28;20535;-74
2020/12/19 02:17:33;;;;;;;0.57;0.57;;;12.30;99.90;;;;;;21099287;28;20700;-76
2020/12/19 02:27:36;;;;;;;0.27;0.07;;;12.30;99.90;;;;;;21113574;28;20203;-75
2020/12/19 02:37:38;;;;;;;3.20;1.00;;;11.90;99.90;;;;;;21119220;27;20223;-74
2020/12/19 02:47:42;;;;;;;0.20;0.20;;;12.00;99.90;;;;;;21097843;28;20192;-75
2020/12/19 02:57:44;;;;;;;0.93;0.60;;;11.60;99.90;;;;;;21114599;28;20384;-75
2020/12/19 03:07:48;;;;;;;0.20;0.10;;;11.30;99.90;;;;;;21117916;28;20202;-75
2020/12/19 03:17:50;;;;;;;0.47;0.30;;;11.40;99.90;;;;;;21113878;28;20227;-75
2020/12/19 03:27:54;;;;;;;2.60;1.13;;;11.00;99.90;;;;;;21113339;28;20199;-75
2020/12/19 03:37:56;;;;;;;1.07;0.60;;;11.00;99.90;;;;;;21096073;28;20234;-74
2020/12/19 03:48:00;;;;;;;0.53;0.50;;;10.80;99.90;;;;;;21089370;28;20195;-75
2020/12/19 03:58:02;;;;;;;0.20;0.07;;;10.80;99.90;;;;;;21029246;28;20259;-74
2020/12/19 04:08:06;;;;;;;1.20;0.60;;;10.30;99.90;;;;;;21061877;23;20232;-67
2020/12/19 04:18:10;;;;;;;0.40;0.30;;;10.50;99.90;;;;;;21004288;28;20216;-68
2020/12/19 04:28:13;;;;;;;0.77;0.73;;;10.60;99.90;;;;;;21093208;28;20572;-68
2020/12/19 04:38:16;;;;;;;1.77;1.20;;;10.90;99.90;;;;;;21044316;28;20239;-68
2020/12/19 04:48:19;;;;;;;0.37;0.37;;;11.20;99.90;;;;;;21022608;28;20211;-67
2020/12/19 04:58:22;;;;;;;0.83;0.80;;;11.30;99.90;;;;;;21020562;28;20266;-68
2020/12/19 05:08:25;;;;;;;2.33;0.67;;;11.60;99.90;;;;;;20877744;23;20590;-73
2020/12/19 05:18:28;;;;;;;0.63;0.63;;;11.60;99.90;;;;;;20867192;28;20225;-74
2020/12/19 05:28:33;;;;;;;2.40;0.97;;;11.60;99.90;;;;;;20853406;28;20198;-75
2020/12/19 05:38:39;;;;;;;2.23;1.97;;;11.80;99.90;;;;;;20853783;28;20248;-74
2020/12/19 05:48:44;;;;;;;1.80;1.57;;;11.80;99.90;;;;;;20885740;28;20688;-74
2020/12/19 05:58:48;;;;;;;8.70;2.47;;;11.90;99.90;;;;;;20870033;28;20451;-75
2020/12/19 06:08:52;;;;;;;3.67;2.40;;;12.00;99.90;;;;;;20814089;28;20230;-75
2020/12/19 06:19:19;;;;;;;1.73;1.60;;;11.90;99.90;;;;;;20789063;28;20305;-74
2020/12/19 06:29:35;;;;;;;0.90;0.73;;;11.90;99.90;;;;;;20785190;28;20198;-76
2020/12/19 06:39:38;;;;;;;4.23;2.70;;;11.90;99.90;;;;;;20786152;28;20583;-76
2020/12/19 06:49:41;;;;;;;2.70;2.17;;;11.50;99.90;;;;;;20797925;28;20691;-79
2020/12/19 06:59:44;;;;;;;0.87;0.87;;;11.20;99.90;;;;;;20782515;28;20226;-77
2020/12/19 07:09:56;;;;;;;0.63;0.60;;;11.10;99.90;;;;;;20781427;28;20194;-77
2020/12/19 07:20:01;;;;;;;2.33;1.77;;;11.00;99.90;;;;;;20781450;28;20228;-76
2020/12/19 07:30:05;;;;;;;2.30;2.10;;;11.00;99.90;;;;;;20780496;28;20203;-77
2020/12/19 07:40:08;;;;;;;2.23;1.87;;;10.70;99.90;;;;;;20857385;28;20659;-77
2020/12/19 07:50:11;;;;;;;2.07;1.90;;;11.00;99.90;;;;;;20858880;28;20185;-77
2020/12/19 08:00:14;;;;;;;1.97;1.70;;;11.10;99.90;;;;;;20858427;28;20733;-76
2020/12/19 08:10:19;;;;;;;1.80;1.63;;;11.20;99.90;;;;;;20875025;28;20203;-75
2020/12/19 08:20:24;;;;;;;3.07;1.87;;;11.30;99.90;;;;;;20860109;28;20225;-76
2020/12/19 08:30:32;;;;;;;1.07;1.07;;;11.50;99.90;;;;;;20859346;28;20562;-76
2020/12/19 08:40:37;;;;;;;1.33;1.23;;;11.80;99.90;;;;;;20858785;28;20221;-76
2020/12/19 08:50:44;;;;;;;1.60;1.43;;;12.50;99.90;;;;;;20870167;28;20531;-77
2020/12/19 09:00:47;;;;;;;1.70;1.60;;;13.20;99.90;;;;;;20901741;28;20316;-75
2020/12/19 09:10:50;;;;;;;1.60;1.50;;;13.50;99.90;;;;;;20939431;28;20610;-77
2020/12/19 09:20:56;;;;;;;5.97;1.63;;;14.10;99.90;;;;;;20888123;28;20227;-81
2020/12/19 09:30:59;;;;;;;0.80;0.80;;;14.50;99.90;;;;;;20897432;28;20627;-82
2020/12/19 09:41:02;;;;;;;1.63;1.40;;;14.90;99.90;;;;;;20875819;28;20280;-79
2020/12/19 09:51:05;;;;;;;1.70;0.93;;;15.00;99.90;;;;;;20872755;28;20386;-83
2020/12/19 10:01:08;;;;;;;1.33;1.23;;;15.00;99.90;;;;;;20850332;28;20258;-79
2020/12/19 10:11:12;;;;;;;2.63;1.20;;;14.80;99.90;;;;;;20867514;28;20202;-79
2020/12/19 10:21:29;;;;;;;0.83;0.67;;;14.70;99.90;;;;;;20866313;28;20688;-80
2020/12/19 10:31:33;;;;;;;1.77;1.67;;;15.00;99.90;;;;;;20865975;28;20200;-80
2020/12/19 10:41:36;;;;;;;2.17;1.93;;;15.90;99.90;;;;;;20866397;28;20232;-78
2020/12/19 10:51:39;;;;;;;2.40;1.10;;;15.40;99.90;;;;;;20862592;28;20201;-77
2020/12/19 11:01:41;;;;;;;0.73;0.73;;;15.40;99.90;;;;;;20859071;28;20908;-76
2020/12/19 11:11:51;;;;;;;0.40;0.40;;;16.20;99.90;;;;;;20859200;28;20781;-77
2020/12/19 11:21:53;;;;;;;7.03;2.50;;;16.70;99.90;;;;;;20863048;28;20256;-74
2020/12/19 11:31:57;;;;;;;1.20;1.10;;;17.40;99.90;;;;;;20859764;28;20546;-74
2020/12/19 11:42:01;;;;;;;7.60;3.07;;;17.90;99.90;;;;;;20860181;28;20510;-74
2020/12/19 11:52:08;;;;;;;4.63;3.03;;;18.80;99.90;;;;;;20860528;28;20551;-75
2020/12/19 12:02:11;;;;;;;4.03;2.53;;;19.00;99.90;;;;;;20859694;28;21077;-75
2020/12/19 12:12:14;;;;;;;1.93;1.47;;;19.70;99.90;;;;;;20856851;28;20189;-75
2020/12/19 12:22:17;;;;;;;1.67;1.43;;;20.00;99.90;;;;;;20859261;28;20228;-75
2020/12/19 12:32:20;;;;;;;1.37;1.17;;;19.90;99.90;;;;;;20871834;28;20196;-76
2020/12/19 12:42:24;;;;;;;4.40;2.53;;;20.60;99.90;;;;;;20868813;28;20229;-75
2020/12/19 12:52:28;;;;;;;1.27;1.00;;;20.60;99.90;;;;;;20865434;28;20662;-74
2020/12/19 13:02:30;;;;;;;0.67;0.67;;;20.20;99.90;;;;;;20871289;28;20237;-73
2020/12/19 13:12:34;;;;;;;0.80;0.80;;;18.60;99.90;;;;;;20866308;28;20194;-73
2020/12/19 13:22:37;;;;;;;0.83;0.80;;;18.70;99.90;;;;;;20868486;28;20244;-74
2020/12/19 13:32:40;;;;;;;0.70;0.70;;;19.20;99.90;;;;;;20864041;28;20555;-75
2020/12/19 13:42:43;;;;;;;1.63;1.43;;;19.00;99.90;;;;;;20864015;28;20225;-74
2020/12/19 13:52:47;;;;;;;1.63;0.60;;;19.40;99.90;;;;;;20863329;28;20535;-73
2020/12/19 14:02:51;;;;;;;1.07;0.80;;;19.40;99.90;;;;;;20865499;28;20244;-75
2020/12/19 14:12:54;;;;;;;4.53;0.87;;;20.10;99.90;;;;;;20868594;28;20197;-76
2020/12/19 14:22:57;;;;;;;2.63;0.57;;;20.20;99.90;;;;;;20894582;28;20607;-75
2020/12/19 14:33:00;;;;;;;0.20;0.20;;;20.40;99.90;;;;;;20859058;28;20208;-75
2020/12/19 14:43:03;;;;;;;2.43;0.33;;;18.70;99.90;;;;;;20861712;28;20503;-76
2020/12/19 14:53:07;;;;;;;1.27;0.60;;;16.70;99.90;;;;;;20859796;28;20296;-77
2020/12/19 15:03:09;;;;;;;0.73;0.73;;;16.30;99.90;;;;;;20864075;28;20234;-76
2020/12/19 15:13:14;;;;;;;0.73;0.73;;;16.00;99.90;;;;;;20862163;28;20194;-76
2020/12/19 15:23:16;;;;;;;1.07;0.60;;;15.90;99.90;;;;;;20864817;28;20350;-75
2020/12/19 15:33:20;;;;;;;0.60;0.60;;;15.70;99.90;;;;;;20859909;28;20189;-77
2020/12/19 15:43:23;;;;;;;0.97;0.40;;;15.40;99.90;;;;;;20861745;28;20383;-78
2020/12/19 15:53:27;;;;;;;0.80;0.37;;;15.40;99.90;;;;;;20857742;28;20675;-78
2020/12/19 16:03:30;;;;;;;1.27;0.77;;;15.30;99.90;;;;;;20857115;28;20264;-76
2020/12/19 16:13:36;;;;;;;0.60;0.40;;;15.30;99.90;;;;;;20853105;28;20202;-79
2020/12/19 16:23:40;;;;;;;1.10;1.00;;;15.10;99.90;;;;;;20856583;28;20241;-80
2020/12/19 16:33:45;;;;;;;0.47;0.47;;;14.90;99.90;;;;;;20852216;28;20220;-82
2020/12/19 16:43:50;;;;;;;3.30;0.60;;;14.80;99.90;;;;;;20857720;28;20624;-72
2020/12/19 16:53:54;;;;;;;2.17;1.07;;;14.70;99.90;;;;;;20855770;28;20197;-75
2020/12/19 17:03:57;;;;;;;0.77;0.77;;;14.60;99.90;;;;;;20855858;28;20237;-75
2020/12/19 17:14:00;;;;;;;1.17;0.90;;;14.40;99.90;;;;;;20863628;28;20204;-75
2020/12/19 17:24:04;;;;;;;0.77;0.70;;;14.30;99.90;;;;;;20862381;28;20221;-74
2020/12/19 17:34:08;;;;;;;5.80;1.57;;;13.70;99.90;;;;;;20863874;28;20197;-74
2020/12/19 17:44:10;;;;;;;0.43;0.40;;;13.40;99.90;;;;;;20865629;28;20566;-74
2020/12/19 17:54:14;;;;;;;5.77;1.90;;;13.00;99.90;;;;;;20861343;28;20190;-73
2020/12/19 18:04:16;;;;;;;0.80;0.73;;;12.90;99.90;;;;;;20869753;28;20383;-74
2020/12/19 18:14:20;;;;;;;2.80;1.97;;;12.80;99.90;;;;;;20879227;28;20672;-72
2020/12/19 18:24:22;;;;;;;0.83;0.67;;;12.60;99.90;;;;;;20852774;28;20495;-76
2020/12/19 18:34:26;;;;;;;3.23;1.40;;;12.70;99.90;;;;;;20857974;28;20687;-72
2020/12/19 18:44:29;;;;;;;1.70;1.07;;;12.60;99.90;;;;;;20864986;28;20225;-73
2020/12/19 18:54:33;;;;;;;2.40;1.80;;;12.40;99.90;;;;;;20858551;28;20186;-72
2020/12/19 19:04:35;;;;;;;1.80;0.87;;;12.40;99.90;;;;;;20855131;28;20237;-73
2020/12/19 19:14:39;;;;;;;1.53;1.43;;;12.20;99.90;;;;;;20861085;28;20190;-73
2020/12/19 19:34:59;;;;;;;0.20;0.20;;;12.10;99.90;;;;;;21852512;22;20552;-74
2020/12/19 19:45:02;;;;;;;0.83;0.83;;;12.00;99.90;;;;;;20692156;28;20698;-74
2020/12/19 19:55:06;;;;;;;1.50;1.00;;;12.00;99.90;;;;;;20675323;28;20195;-72
2020/12/19 20:05:09;;;;;;;0.70;0.50;;;12.10;99.90;;;;;;20690559;28;20317;-73
2020/12/19 20:15:12;;;;;;;1.00;0.97;;;12.50;99.90;;;;;;20685468;28;20198;-74
2020/12/19 20:25:15;;;;;;;3.10;1.57;;;12.70;99.90;;;;;;20625736;28;20234;-74
2020/12/19 20:35:19;;;;;;;3.50;1.83;;;12.80;99.90;;;;;;20612265;28;20265;-74
2020/12/19 20:45:21;;;;;;;3.43;1.57;;;13.00;99.90;;;;;;20677848;28;20218;-72
2020/12/19 20:55:25;;;;;;;2.43;2.20;;;13.10;99.90;;;;;;20710926;28;20354;-72
2020/12/19 21:05:28;;;;;;;3.43;1.93;;;13.10;99.90;;;;;;20705609;28;20315;-75
2020/12/19 21:15:31;;;;;;;1.87;1.77;;;12.80;99.90;;;;;;20706346;28;20209;-74
2020/12/19 21:25:35;;;;;;;2.40;1.47;;;12.20;99.90;;;;;;20706044;28;20226;-73
2020/12/19 21:35:39;;;;;;;2.73;1.57;;;12.10;99.90;;;;;;20701791;28;20239;-74
2020/12/19 21:45:41;;;;;;;1.13;0.93;;;11.90;99.90;;;;;;20702038;28;20227;-74
2020/12/19 21:55:45;;;;;;;1.43;1.33;;;11.80;99.90;;;;;;20701170;28;20210;-74
2020/12/19 22:05:47;;;;;;;0.70;0.70;;;11.70;99.90;;;;;;20702859;28;20226;-75
2020/12/19 22:15:51;;;;;;;0.80;0.77;;;11.60;99.90;;;;;;20703024;28;20265;-74
2020/12/19 22:25:54;;;;;;;2.30;1.63;;;11.50;99.90;;;;;;20698680;28;20218;-72
2020/12/19 22:35:57;;;;;;;0.60;0.53;;;11.30;99.90;;;;;;20681638;28;20241;-76
2020/12/19 22:46:00;;;;;;;0.87;0.87;;;11.10;99.90;;;;;;20714608;28;20309;-75
2020/12/19 22:56:07;;;;;;;3.50;3.20;;;11.20;99.90;;;;;;20712941;28;20199;-75
2020/12/19 23:06:10;;;;;;;1.27;1.13;;;11.10;99.90;;;;;;20697457;28;20550;-75
2020/12/19 23:16:13;;;;;;;2.27;1.20;;;11.10;99.90;;;;;;20683443;28;20369;-76
2020/12/19 23:26:17;;;;;;;2.27;1.00;;;11.30;99.90;;;;;;20700353;28;20225;-75
2020/12/19 23:36:21;;;;;;;1.20;0.70;;;11.60;99.90;;;;;;20697025;28;20226;-74
2020/12/19 23:46:24;;;;;;;10.53;2.20;;;11.70;99.90;;;;;;20699351;28;20277;-74
2020/12/19 23:56:28;;;;;;;1.90;0.63;;;11.80;99.90;;;;;;20697214;28;20229;-75
